KGFA/GFA METAR and TAF weather

Enter ICAO airport designator
Station Type Date Time Source
KGFA METAR 2021/08/04 19:58 UTC NOAA

KGFA 041958Z AUTO 00000KT 9SM CLR 31/01 A3009 RMK AO2 SLP156 T03050013 $


Station Type Date Time Source
KGFA Decoded METAR 2021/08/04 19:58 UTC NOAA

Malmstrom Air Force Base, MT, United States (KGFA) 47-30N 111-11W
Aug 04, 2021 - 03:58 PM EDT / 2021.08.04 1958 UTC
Wind: Calm:0
Visibility: 9 mile(s):0
Sky conditions: clear
Temperature: 86.9 F (30.5 C)
Dew Point: 34.3 F (1.3 C)
Relative Humidity: 15%
Pressure (altimeter): 30.09 in. Hg (1018 hPa)
ob: KGFA 041958Z AUTO 00000KT 9SM CLR 31/01 A3009 RMK AO2 SLP156 T03050013
cycle: 20

Station Type Date Time Source
KGFA TAF 2021/08/04 19:05 UTC NOAA

TAF KGFA 041900Z 0419/0601 27009KT 8000 HZ FEW150 QNH3011INS
TEMPO 0501/0503 22010G20KT -TSRA FEW150CB
BECMG 0522/0523 08009KT 8000 HZ VCTS FEW120CB QNH2985INS TX30/0519Z TN16/0512Z

Example: see airport list